sensor_id;sensor_type;location;lat;lon;timestamp;temperature;humidity
6462;DHT22;3264;42.862;25.098;2022-07-23T00:05:16;17.20;96.20
6462;DHT22;3264;42.862;25.098;2022-07-23T00:07:49;17.10;96.60
6462;DHT22;3264;42.862;25.098;2022-07-23T00:10:21;17.10;96.60
6462;DHT22;3264;42.862;25.098;2022-07-23T00:12:52;17.00;96.70
6462;DHT22;3264;42.862;25.098;2022-07-23T00:15:23;17.10;96.60
6462;DHT22;3264;42.862;25.098;2022-07-23T00:17:54;17.10;96.40
6462;DHT22;3264;42.862;25.098;2022-07-23T00:20:26;17.20;96.40
6462;DHT22;3264;42.862;25.098;2022-07-23T00:22:56;17.20;96.40
6462;DHT22;3264;42.862;25.098;2022-07-23T00:25:29;17.10;96.60
6462;DHT22;3264;42.862;25.098;2022-07-23T00:27:58;17.00;96.60
6462;DHT22;3264;42.862;25.098;2022-07-23T00:30:30;17.00;96.90
6462;DHT22;3264;42.862;25.098;2022-07-23T00:36:49;16.90;97.10
6462;DHT22;3264;42.862;25.098;2022-07-23T00:39:22;16.80;97.20
6462;DHT22;3264;42.862;25.098;2022-07-23T00:41:54;16.90;97.00
6462;DHT22;3264;42.862;25.098;2022-07-23T00:44:24;16.80;97.20
6462;DHT22;3264;42.862;25.098;2022-07-23T00:46:54;16.80;97.50
6462;DHT22;3264;42.862;25.098;2022-07-23T00:52:48;16.60;98.20
6462;DHT22;3264;42.862;25.098;2022-07-23T00:55:17;16.50;98.00
6462;DHT22;3264;42.862;25.098;2022-07-23T00:57:53;16.60;98.30
6462;DHT22;3264;42.862;25.098;2022-07-23T01:00:27;16.50;98.20
6462;DHT22;3264;42.862;25.098;2022-07-23T01:02:59;16.50;98.00
6462;DHT22;3264;42.862;25.098;2022-07-23T01:05:27;16.50;98.20
6462;DHT22;3264;42.862;25.098;2022-07-23T01:07:56;16.40;98.40
6462;DHT22;3264;42.862;25.098;2022-07-23T01:10:26;16.50;98.40
6462;DHT22;3264;42.862;25.098;2022-07-23T01:16:08;16.50;98.30
6462;DHT22;3264;42.862;25.098;2022-07-23T01:18:40;16.50;98.10
6462;DHT22;3264;42.862;25.098;2022-07-23T01:21:09;16.40;98.40
6462;DHT22;3264;42.862;25.098;2022-07-23T01:23:57;16.40;98.60
6462;DHT22;3264;42.862;25.098;2022-07-23T01:26:27;16.50;98.20
6462;DHT22;3264;42.862;25.098;2022-07-23T01:28:59;16.40;98.70
6462;DHT22;3264;42.862;25.098;2022-07-23T01:31:31;16.40;98.90
6462;DHT22;3264;42.862;25.098;2022-07-23T01:34:00;16.30;98.90
6462;DHT22;3264;42.862;25.098;2022-07-23T01:36:42;16.30;98.90
6462;DHT22;3264;42.862;25.098;2022-07-23T01:39:41;16.40;98.30
6462;DHT22;3264;42.862;25.098;2022-07-23T01:42:13;16.30;98.60
6462;DHT22;3264;42.862;25.098;2022-07-23T01:44:42;16.40;98.60
6462;DHT22;3264;42.862;25.098;2022-07-23T01:47:11;16.30;98.90
6462;DHT22;3264;42.862;25.098;2022-07-23T01:49:43;16.40;98.40
6462;DHT22;3264;42.862;25.098;2022-07-23T01:52:12;16.50;98.50
6462;DHT22;3264;42.862;25.098;2022-07-23T01:54:43;16.40;98.50
6462;DHT22;3264;42.862;25.098;2022-07-23T01:57:11;16.30;98.80
6462;DHT22;3264;42.862;25.098;2022-07-23T02:03:02;16.40;98.10
6462;DHT22;3264;42.862;25.098;2022-07-23T02:05:30;16.30;98.20
6462;DHT22;3264;42.862;25.098;2022-07-23T02:11:08;16.20;99.40
6462;DHT22;3264;42.862;25.098;2022-07-23T02:13:39;16.10;99.40
6462;DHT22;3264;42.862;25.098;2022-07-23T02:16:08;16.20;99.30
6462;DHT22;3264;42.862;25.098;2022-07-23T02:18:51;16.20;99.20
6462;DHT22;3264;42.862;25.098;2022-07-23T02:21:53;16.20;99.20
6462;DHT22;3264;42.862;25.098;2022-07-23T02:28:04;16.20;99.30
6462;DHT22;3264;42.862;25.098;2022-07-23T02:30:50;16.20;99.10
6462;DHT22;3264;42.862;25.098;2022-07-23T02:33:49;16.10;99.40
6462;DHT22;3264;42.862;25.098;2022-07-23T02:36:20;16.00;99.90
6462;DHT22;3264;42.862;25.098;2022-07-23T02:38:48;16.00;99.60
6462;DHT22;3264;42.862;25.098;2022-07-23T02:44:40;16.10;99.40
6462;DHT22;3264;42.862;25.098;2022-07-23T02:47:08;16.00;99.50
6462;DHT22;3264;42.862;25.098;2022-07-23T02:49:36;16.00;99.50
6462;DHT22;3264;42.862;25.098;2022-07-23T02:52:05;15.90;99.90
6462;DHT22;3264;42.862;25.098;2022-07-23T02:54:36;15.90;99.90
6462;DHT22;3264;42.862;25.098;2022-07-23T02:57:05;16.00;99.90
6462;DHT22;3264;42.862;25.098;2022-07-23T02:59:33;16.00;99.50
6462;DHT22;3264;42.862;25.098;2022-07-23T03:02:03;15.90;99.90
6462;DHT22;3264;42.862;25.098;2022-07-23T03:04:31;15.90;99.90
6462;DHT22;3264;42.862;25.098;2022-07-23T03:06:59;15.80;99.90
6462;DHT22;3264;42.862;25.098;2022-07-23T03:09:30;15.80;99.90
6462;DHT22;3264;42.862;25.098;2022-07-23T03:12:02;15.70;99.90
6462;DHT22;3264;42.862;25.098;2022-07-23T03:14:30;15.90;99.90
6462;DHT22;3264;42.862;25.098;2022-07-23T03:17:03;16.10;99.70
6462;DHT22;3264;42.862;25.098;2022-07-23T03:19:32;16.20;99.60
6462;DHT22;3264;42.862;25.098;2022-07-23T03:22:03;16.20;99.60
6462;DHT22;3264;42.862;25.098;2022-07-23T03:24:32;16.20;99.30
6462;DHT22;3264;42.862;25.098;2022-07-23T03:27:14;16.30;99.30
6462;DHT22;3264;42.862;25.098;2022-07-23T03:29:45;16.40;99.20
6462;DHT22;3264;42.862;25.098;2022-07-23T03:32:15;16.40;99.10
6462;DHT22;3264;42.862;25.098;2022-07-23T03:34:44;16.50;99.40
6462;DHT22;3264;42.862;25.098;2022-07-23T03:37:16;16.50;98.90
6462;DHT22;3264;42.862;25.098;2022-07-23T03:39:47;16.50;98.60
6462;DHT22;3264;42.862;25.098;2022-07-23T03:45:27;16.50;98.90
6462;DHT22;3264;42.862;25.098;2022-07-23T03:47:57;16.50;99.10
6462;DHT22;3264;42.862;25.098;2022-07-23T03:50:28;16.50;99.40
6462;DHT22;3264;42.862;25.098;2022-07-23T03:52:56;16.50;99.20
6462;DHT22;3264;42.862;25.098;2022-07-23T03:55:25;16.50;99.50
6462;DHT22;3264;42.862;25.098;2022-07-23T03:58:03;16.50;98.80
6462;DHT22;3264;42.862;25.098;2022-07-23T04:00:31;16.60;99.10
6462;DHT22;3264;42.862;25.098;2022-07-23T04:03:05;16.50;99.30
6462;DHT22;3264;42.862;25.098;2022-07-23T04:05:36;16.60;99.40
6462;DHT22;3264;42.862;25.098;2022-07-23T04:08:05;16.70;99.40
6462;DHT22;3264;42.862;25.098;2022-07-23T04:10:36;16.70;99.20
6462;DHT22;3264;42.862;25.098;2022-07-23T04:13:05;16.80;99.00
6462;DHT22;3264;42.862;25.098;2022-07-23T04:18:57;16.80;99.20
6462;DHT22;3264;42.862;25.098;2022-07-23T04:21:28;16.80;99.80
6462;DHT22;3264;42.862;25.098;2022-07-23T04:24:00;16.90;99.10
6462;DHT22;3264;42.862;25.098;2022-07-23T04:26:31;17.00;98.90
6462;DHT22;3264;42.862;25.098;2022-07-23T04:29:17;17.10;99.30
6462;DHT22;3264;42.862;25.098;2022-07-23T04:31:45;17.20;98.80
6462;DHT22;3264;42.862;25.098;2022-07-23T04:34:15;17.30;98.60
6462;DHT22;3264;42.862;25.098;2022-07-23T04:36:43;17.30;98.70
6462;DHT22;3264;42.862;25.098;2022-07-23T04:39:11;17.30;99.00
6462;DHT22;3264;42.862;25.098;2022-07-23T04:41:39;17.40;99.10
6462;DHT22;3264;42.862;25.098;2022-07-23T04:44:08;17.50;98.40
6462;DHT22;3264;42.862;25.098;2022-07-23T04:46:37;17.70;97.90
6462;DHT22;3264;42.862;25.098;2022-07-23T04:49:06;17.80;98.00
6462;DHT22;3264;42.862;25.098;2022-07-23T04:51:38;17.90;97.90
6462;DHT22;3264;42.862;25.098;2022-07-23T04:54:07;18.10;97.70
6462;DHT22;3264;42.862;25.098;2022-07-23T04:56:36;18.40;97.40
6462;DHT22;3264;42.862;25.098;2022-07-23T04:59:04;18.60;97.10
6462;DHT22;3264;42.862;25.098;2022-07-23T05:01:32;18.70;97.00
6462;DHT22;3264;42.862;25.098;2022-07-23T05:04:03;18.90;96.20
6462;DHT22;3264;42.862;25.098;2022-07-23T05:06:32;19.10;96.00
6462;DHT22;3264;42.862;25.098;2022-07-23T05:09:04;19.30;96.00
6462;DHT22;3264;42.862;25.098;2022-07-23T05:11:35;19.40;95.50
6462;DHT22;3264;42.862;25.098;2022-07-23T05:14:09;19.70;95.60
6462;DHT22;3264;42.862;25.098;2022-07-23T05:16:38;19.90;94.50
6462;DHT22;3264;42.862;25.098;2022-07-23T05:19:10;20.10;94.10
6462;DHT22;3264;42.862;25.098;2022-07-23T05:21:50;20.30;94.40
6462;DHT22;3264;42.862;25.098;2022-07-23T05:24:24;20.40;93.50
6462;DHT22;3264;42.862;25.098;2022-07-23T05:26:55;20.60;93.40
6462;DHT22;3264;42.862;25.098;2022-07-23T05:29:27;20.70;93.20
6462;DHT22;3264;42.862;25.098;2022-07-23T05:31:55;20.80;93.00
6462;DHT22;3264;42.862;25.098;2022-07-23T05:34:27;21.00;93.10
6462;DHT22;3264;42.862;25.098;2022-07-23T05:36:58;21.20;92.60
6462;DHT22;3264;42.862;25.098;2022-07-23T05:39:30;21.40;92.50
6462;DHT22;3264;42.862;25.098;2022-07-23T05:41:59;21.80;92.60
6462;DHT22;3264;42.862;25.098;2022-07-23T05:44:29;22.10;91.80
6462;DHT22;3264;42.862;25.098;2022-07-23T05:47:01;22.30;91.40
6462;DHT22;3264;42.862;25.098;2022-07-23T05:49:33;22.70;91.10
6462;DHT22;3264;42.862;25.098;2022-07-23T05:55:23;23.40;90.00
6462;DHT22;3264;42.862;25.098;2022-07-23T05:58:01;23.60;89.30
6462;DHT22;3264;42.862;25.098;2022-07-23T06:00:32;23.90;88.80
6462;DHT22;3264;42.862;25.098;2022-07-23T06:03:01;23.90;86.20
6462;DHT22;3264;42.862;25.098;2022-07-23T06:05:33;24.10;87.90
6462;DHT22;3264;42.862;25.098;2022-07-23T06:08:04;24.50;86.60
6462;DHT22;3264;42.862;25.098;2022-07-23T06:10:38;24.20;84.80
6462;DHT22;3264;42.862;25.098;2022-07-23T06:13:06;24.40;86.90
6462;DHT22;3264;42.862;25.098;2022-07-23T06:15:34;24.70;83.80
6462;DHT22;3264;42.862;25.098;2022-07-23T06:18:05;25.10;84.60
6462;DHT22;3264;42.862;25.098;2022-07-23T06:20:35;25.50;83.10
6462;DHT22;3264;42.862;25.098;2022-07-23T06:23:10;26.00;85.10
6462;DHT22;3264;42.862;25.098;2022-07-23T06:25:40;25.90;79.40
6462;DHT22;3264;42.862;25.098;2022-07-23T06:28:11;26.30;80.90
6462;DHT22;3264;42.862;25.098;2022-07-23T06:30:40;26.20;80.50
6462;DHT22;3264;42.862;25.098;2022-07-23T06:33:08;26.30;79.60
6462;DHT22;3264;42.862;25.098;2022-07-23T06:35:41;26.70;79.00
6462;DHT22;3264;42.862;25.098;2022-07-23T06:38:37;26.80;77.80
6462;DHT22;3264;42.862;25.098;2022-07-23T06:41:07;27.00;75.70
6462;DHT22;3264;42.862;25.098;2022-07-23T06:43:35;26.80;77.60
6462;DHT22;3264;42.862;25.098;2022-07-23T06:46:04;27.10;74.90
6462;DHT22;3264;42.862;25.098;2022-07-23T06:51:54;27.00;74.40
6462;DHT22;3264;42.862;25.098;2022-07-23T06:54:25;27.60;73.30
6462;DHT22;3264;42.862;25.098;2022-07-23T06:56:58;27.90;76.30
6462;DHT22;3264;42.862;25.098;2022-07-23T06:59:29;28.00;69.90
6462;DHT22;3264;42.862;25.098;2022-07-23T07:05:14;27.80;69.20
6462;DHT22;3264;42.862;25.098;2022-07-23T07:07:43;28.80;66.20
6462;DHT22;3264;42.862;25.098;2022-07-23T07:10:13;28.60;65.80
6462;DHT22;3264;42.862;25.098;2022-07-23T07:12:43;29.30;66.40
6462;DHT22;3264;42.862;25.098;2022-07-23T07:15:12;29.00;59.70
6462;DHT22;3264;42.862;25.098;2022-07-23T07:17:41;29.10;62.60
6462;DHT22;3264;42.862;25.098;2022-07-23T07:20:13;29.60;63.10
6462;DHT22;3264;42.862;25.098;2022-07-23T07:22:41;29.80;65.10
6462;DHT22;3264;42.862;25.098;2022-07-23T07:25:12;30.20;64.10
6462;DHT22;3264;42.862;25.098;2022-07-23T07:27:46;30.50;66.40
6462;DHT22;3264;42.862;25.098;2022-07-23T07:30:14;30.50;68.00
6462;DHT22;3264;42.862;25.098;2022-07-23T07:32:42;30.50;62.30
6462;DHT22;3264;42.862;25.098;2022-07-23T07:35:10;30.90;62.60
6462;DHT22;3264;42.862;25.098;2022-07-23T07:37:39;31.00;57.10
6462;DHT22;3264;42.862;25.098;2022-07-23T07:40:08;31.60;60.50
6462;DHT22;3264;42.862;25.098;2022-07-23T07:42:47;31.80;61.00
6462;DHT22;3264;42.862;25.098;2022-07-23T07:45:15;31.90;58.10
6462;DHT22;3264;42.862;25.098;2022-07-23T07:47:44;31.90;57.00
6462;DHT22;3264;42.862;25.098;2022-07-23T07:50:13;32.10;55.00
6462;DHT22;3264;42.862;25.098;2022-07-23T07:52:48;32.40;56.00
6462;DHT22;3264;42.862;25.098;2022-07-23T07:55:17;32.70;57.10
6462;DHT22;3264;42.862;25.098;2022-07-23T07:57:54;33.00;57.70
6462;DHT22;3264;42.862;25.098;2022-07-23T08:00:29;33.30;51.80
6462;DHT22;3264;42.862;25.098;2022-07-23T08:02:59;33.50;50.70
6462;DHT22;3264;42.862;25.098;2022-07-23T08:05:31;33.20;47.10
6462;DHT22;3264;42.862;25.098;2022-07-23T08:08:03;33.30;52.00
6462;DHT22;3264;42.862;25.098;2022-07-23T08:10:32;33.40;48.00
6462;DHT22;3264;42.862;25.098;2022-07-23T08:13:02;33.40;46.00
6462;DHT22;3264;42.862;25.098;2022-07-23T08:15:40;33.60;46.60
6462;DHT22;3264;42.862;25.098;2022-07-23T08:18:10;33.70;47.60
6462;DHT22;3264;42.862;25.098;2022-07-23T08:20:40;34.00;48.40
6462;DHT22;3264;42.862;25.098;2022-07-23T08:23:09;34.20;46.30
6462;DHT22;3264;42.862;25.098;2022-07-23T08:25:40;34.30;47.40
6462;DHT22;3264;42.862;25.098;2022-07-23T08:28:14;34.50;46.00
6462;DHT22;3264;42.862;25.098;2022-07-23T08:30:46;34.30;44.70
6462;DHT22;3264;42.862;25.098;2022-07-23T08:36:26;34.70;47.50
6462;DHT22;3264;42.862;25.098;2022-07-23T08:38:57;34.40;43.40
6462;DHT22;3264;42.862;25.098;2022-07-23T08:41:47;34.50;43.20
6462;DHT22;3264;42.862;25.098;2022-07-23T08:44:20;34.80;44.80
6462;DHT22;3264;42.862;25.098;2022-07-23T08:46:49;35.20;43.60
6462;DHT22;3264;42.862;25.098;2022-07-23T08:49:19;35.10;41.60
6462;DHT22;3264;42.862;25.098;2022-07-23T08:51:58;35.10;44.80
6462;DHT22;3264;42.862;25.098;2022-07-23T08:54:40;35.20;42.80
6462;DHT22;3264;42.862;25.098;2022-07-23T08:57:09;35.10;40.20
6462;DHT22;3264;42.862;25.098;2022-07-23T08:59:43;35.20;39.90
6462;DHT22;3264;42.862;25.098;2022-07-23T09:02:12;35.40;40.40
6462;DHT22;3264;42.862;25.098;2022-07-23T09:04:40;35.20;38.80
6462;DHT22;3264;42.862;25.098;2022-07-23T09:07:10;35.20;40.90
6462;DHT22;3264;42.862;25.098;2022-07-23T09:12:34;35.30;40.50
6462;DHT22;3264;42.862;25.098;2022-07-23T09:15:20;35.10;39.10
6462;DHT22;3264;42.862;25.098;2022-07-23T09:18:03;35.50;41.50
6462;DHT22;3264;42.862;25.098;2022-07-23T09:20:37;35.50;39.00
6462;DHT22;3264;42.862;25.098;2022-07-23T09:23:06;35.40;38.40
6462;DHT22;3264;42.862;25.098;2022-07-23T09:25:38;35.40;42.20
6462;DHT22;3264;42.862;25.098;2022-07-23T09:28:07;35.10;41.60
6462;DHT22;3264;42.862;25.098;2022-07-23T09:30:42;35.10;41.70
6462;DHT22;3264;42.862;25.098;2022-07-23T09:33:16;35.50;40.10
6462;DHT22;3264;42.862;25.098;2022-07-23T09:35:51;35.50;39.00
6462;DHT22;3264;42.862;25.098;2022-07-23T09:38:23;35.70;39.10
6462;DHT22;3264;42.862;25.098;2022-07-23T09:41:06;35.80;41.80
6462;DHT22;3264;42.862;25.098;2022-07-23T09:43:38;35.90;39.60
6462;DHT22;3264;42.862;25.098;2022-07-23T09:46:24;35.90;37.00
6462;DHT22;3264;42.862;25.098;2022-07-23T09:48:53;35.70;37.80
6462;DHT22;3264;42.862;25.098;2022-07-23T09:51:23;35.50;37.90
6462;DHT22;3264;42.862;25.098;2022-07-23T09:53:59;36.10;39.80
6462;DHT22;3264;42.862;25.098;2022-07-23T09:56:36;35.90;38.50
6462;DHT22;3264;42.862;25.098;2022-07-23T09:59:08;36.00;36.30
6462;DHT22;3264;42.862;25.098;2022-07-23T10:04:18;36.00;36.80
6462;DHT22;3264;42.862;25.098;2022-07-23T10:06:52;36.00;37.30
6462;DHT22;3264;42.862;25.098;2022-07-23T10:09:28;36.50;39.50
6462;DHT22;3264;42.862;25.098;2022-07-23T10:12:03;36.70;37.30
6462;DHT22;3264;42.862;25.098;2022-07-23T10:14:51;36.40;37.10
6462;DHT22;3264;42.862;25.098;2022-07-23T10:17:22;36.00;36.60
6462;DHT22;3264;42.862;25.098;2022-07-23T10:19:51;36.40;40.20
6462;DHT22;3264;42.862;25.098;2022-07-23T10:22:25;36.20;37.60
6462;DHT22;3264;42.862;25.098;2022-07-23T10:25:03;36.20;37.70
6462;DHT22;3264;42.862;25.098;2022-07-23T10:28:06;36.60;40.80
6462;DHT22;3264;42.862;25.098;2022-07-23T10:30:42;37.20;37.70
6462;DHT22;3264;42.862;25.098;2022-07-23T10:33:27;37.20;36.10
6462;DHT22;3264;42.862;25.098;2022-07-23T10:36:03;36.40;35.10
6462;DHT22;3264;42.862;25.098;2022-07-23T10:38:42;36.20;35.60
6462;DHT22;3264;42.862;25.098;2022-07-23T10:41:19;36.10;37.90
6462;DHT22;3264;42.862;25.098;2022-07-23T10:44:09;36.60;35.70
6462;DHT22;3264;42.862;25.098;2022-07-23T10:46:56;36.50;36.20
6462;DHT22;3264;42.862;25.098;2022-07-23T10:53:15;37.00;36.70
6462;DHT22;3264;42.862;25.098;2022-07-23T10:55:47;36.60;35.10
6462;DHT22;3264;42.862;25.098;2022-07-23T10:58:22;36.70;36.00
6462;DHT22;3264;42.862;25.098;2022-07-23T11:00:52;37.00;35.00
6462;DHT22;3264;42.862;25.098;2022-07-23T11:03:31;37.00;36.30
6462;DHT22;3264;42.862;25.098;2022-07-23T11:06:03;37.20;36.40
6462;DHT22;3264;42.862;25.098;2022-07-23T11:15:20;36.90;35.80
6462;DHT22;3264;42.862;25.098;2022-07-23T11:18:05;37.30;36.50
6462;DHT22;3264;42.862;25.098;2022-07-23T11:20:37;37.10;35.80
6462;DHT22;3264;42.862;25.098;2022-07-23T11:23:06;36.90;35.50
6462;DHT22;3264;42.862;25.098;2022-07-23T11:25:38;37.40;36.90
6462;DHT22;3264;42.862;25.098;2022-07-23T11:28:14;37.40;34.50
6462;DHT22;3264;42.862;25.098;2022-07-23T11:30:46;37.50;33.50
6462;DHT22;3264;42.862;25.098;2022-07-23T11:33:21;36.70;34.90
6462;DHT22;3264;42.862;25.098;2022-07-23T11:36:03;36.80;35.60
6462;DHT22;3264;42.862;25.098;2022-07-23T11:38:36;37.50;35.00
6462;DHT22;3264;42.862;25.098;2022-07-23T11:41:09;36.90;34.60
6462;DHT22;3264;42.862;25.098;2022-07-23T11:43:38;37.20;35.20
6462;DHT22;3264;42.862;25.098;2022-07-23T11:46:10;37.20;35.20
6462;DHT22;3264;42.862;25.098;2022-07-23T11:48:38;36.90;34.70
6462;DHT22;3264;42.862;25.098;2022-07-23T11:51:07;37.30;36.60
6462;DHT22;3264;42.862;25.098;2022-07-23T11:53:40;36.80;33.70
6462;DHT22;3264;42.862;25.098;2022-07-23T11:56:11;37.10;34.30
6462;DHT22;3264;42.862;25.098;2022-07-23T11:58:55;36.80;36.10
6462;DHT22;3264;42.862;25.098;2022-07-23T12:01:29;36.90;35.80
6462;DHT22;3264;42.862;25.098;2022-07-23T12:04:02;36.50;35.10
6462;DHT22;3264;42.862;25.098;2022-07-23T12:06:38;36.80;36.00
6462;DHT22;3264;42.862;25.098;2022-07-23T12:09:07;36.90;34.70
6462;DHT22;3264;42.862;25.098;2022-07-23T12:11:38;37.50;34.80
6462;DHT22;3264;42.862;25.098;2022-07-23T12:14:10;37.50;33.50
6462;DHT22;3264;42.862;25.098;2022-07-23T12:16:42;37.40;35.20
6462;DHT22;3264;42.862;25.098;2022-07-23T12:19:12;37.60;33.40
6462;DHT22;3264;42.862;25.098;2022-07-23T12:21:44;37.60;31.30
6462;DHT22;3264;42.862;25.098;2022-07-23T12:24:12;37.40;32.30
6462;DHT22;3264;42.862;25.098;2022-07-23T12:27:08;38.00;33.20
6462;DHT22;3264;42.862;25.098;2022-07-23T12:29:37;38.30;33.70
6462;DHT22;3264;42.862;25.098;2022-07-23T12:32:28;38.00;32.80
6462;DHT22;3264;42.862;25.098;2022-07-23T12:35:04;38.00;34.40
6462;DHT22;3264;42.862;25.098;2022-07-23T12:37:35;37.60;32.80
6462;DHT22;3264;42.862;25.098;2022-07-23T12:40:27;37.80;32.40
6462;DHT22;3264;42.862;25.098;2022-07-23T12:43:00;37.90;33.40
6462;DHT22;3264;42.862;25.098;2022-07-23T12:45:46;38.20;33.90
6462;DHT22;3264;42.862;25.098;2022-07-23T12:48:22;38.10;33.70
6462;DHT22;3264;42.862;25.098;2022-07-23T12:51:02;37.40;32.40
6462;DHT22;3264;42.862;25.098;2022-07-23T12:53:40;37.50;34.20
6462;DHT22;3264;42.862;25.098;2022-07-23T12:56:26;37.20;34.50
6462;DHT22;3264;42.862;25.098;2022-07-23T12:59:24;36.90;34.30
6462;DHT22;3264;42.862;25.098;2022-07-23T13:02:00;37.30;34.40
6462;DHT22;3264;42.862;25.098;2022-07-23T13:04:32;37.40;35.30
6462;DHT22;3264;42.862;25.098;2022-07-23T13:07:04;37.40;32.60
6462;DHT22;3264;42.862;25.098;2022-07-23T13:09:39;37.60;33.70
6462;DHT22;3264;42.862;25.098;2022-07-23T13:12:11;37.40;33.20
6462;DHT22;3264;42.862;25.098;2022-07-23T13:14:39;37.30;34.80
6462;DHT22;3264;42.862;25.098;2022-07-23T13:17:07;37.40;36.60
6462;DHT22;3264;42.862;25.098;2022-07-23T13:19:38;37.10;32.90
6462;DHT22;3264;42.862;25.098;2022-07-23T13:22:06;37.00;34.10
6462;DHT22;3264;42.862;25.098;2022-07-23T13:24:37;37.40;35.10
6462;DHT22;3264;42.862;25.098;2022-07-23T13:27:06;37.40;34.10
6462;DHT22;3264;42.862;25.098;2022-07-23T13:29:35;37.80;33.40
6462;DHT22;3264;42.862;25.098;2022-07-23T13:32:04;37.90;32.60
6462;DHT22;3264;42.862;25.098;2022-07-23T13:34:32;37.40;32.50
6462;DHT22;3264;42.862;25.098;2022-07-23T13:37:02;36.30;32.90
6462;DHT22;3264;42.862;25.098;2022-07-23T13:39:31;36.40;33.20
6462;DHT22;3264;42.862;25.098;2022-07-23T13:45:21;36.70;32.50
6462;DHT22;3264;42.862;25.098;2022-07-23T13:47:53;36.20;33.20
6462;DHT22;3264;42.862;25.098;2022-07-23T13:50:22;36.30;33.30
6462;DHT22;3264;42.862;25.098;2022-07-23T13:53:22;36.10;32.90
6462;DHT22;3264;42.862;25.098;2022-07-23T13:56:26;36.60;32.50
6462;DHT22;3264;42.862;25.098;2022-07-23T13:58:55;36.30;34.10
6462;DHT22;3264;42.862;25.098;2022-07-23T14:01:23;36.20;33.90
6462;DHT22;3264;42.862;25.098;2022-07-23T14:07:17;35.50;35.00
6462;DHT22;3264;42.862;25.098;2022-07-23T14:09:47;35.60;35.10
6462;DHT22;3264;42.862;25.098;2022-07-23T14:12:20;35.70;36.00
6462;DHT22;3264;42.862;25.098;2022-07-23T14:14:52;35.80;37.00
6462;DHT22;3264;42.862;25.098;2022-07-23T14:17:20;36.00;37.10
6462;DHT22;3264;42.862;25.098;2022-07-23T14:19:50;36.10;35.40
6462;DHT22;3264;42.862;25.098;2022-07-23T14:22:19;35.90;35.20
6462;DHT22;3264;42.862;25.098;2022-07-23T14:24:51;36.10;35.50
6462;DHT22;3264;42.862;25.098;2022-07-23T14:27:20;36.10;35.00
6462;DHT22;3264;42.862;25.098;2022-07-23T14:29:48;36.00;37.00
6462;DHT22;3264;42.862;25.098;2022-07-23T14:32:20;35.70;35.20
6462;DHT22;3264;42.862;25.098;2022-07-23T14:34:52;35.80;35.00
6462;DHT22;3264;42.862;25.098;2022-07-23T14:37:21;35.90;34.20
6462;DHT22;3264;42.862;25.098;2022-07-23T14:39:56;35.90;33.40
6462;DHT22;3264;42.862;25.098;2022-07-23T14:42:27;36.00;34.00
6462;DHT22;3264;42.862;25.098;2022-07-23T14:44:59;35.70;34.20
6462;DHT22;3264;42.862;25.098;2022-07-23T14:47:48;35.60;34.60
6462;DHT22;3264;42.862;25.098;2022-07-23T14:50:20;34.90;35.30
6462;DHT22;3264;42.862;25.098;2022-07-23T14:52:49;34.90;37.70
6462;DHT22;3264;42.862;25.098;2022-07-23T14:55:19;35.10;38.00
6462;DHT22;3264;42.862;25.098;2022-07-23T14:57:48;35.00;36.30
6462;DHT22;3264;42.862;25.098;2022-07-23T15:00:19;35.30;36.60
6462;DHT22;3264;42.862;25.098;2022-07-23T15:06:10;35.40;34.80
6462;DHT22;3264;42.862;25.098;2022-07-23T15:08:46;35.20;33.50
6462;DHT22;3264;42.862;25.098;2022-07-23T15:11:16;34.70;36.20
6462;DHT22;3264;42.862;25.098;2022-07-23T15:13:47;34.30;34.00
6462;DHT22;3264;42.862;25.098;2022-07-23T15:16:22;34.10;36.40
6462;DHT22;3264;42.862;25.098;2022-07-23T15:18:51;33.80;39.30
6462;DHT22;3264;42.862;25.098;2022-07-23T15:21:19;33.80;39.80
6462;DHT22;3264;42.862;25.098;2022-07-23T15:23:51;33.90;40.40
6462;DHT22;3264;42.862;25.098;2022-07-23T15:26:26;33.70;41.30
6462;DHT22;3264;42.862;25.098;2022-07-23T15:35:38;33.70;42.40
6462;DHT22;3264;42.862;25.098;2022-07-23T15:38:06;33.70;41.40
6462;DHT22;3264;42.862;25.098;2022-07-23T15:40:37;33.80;40.00
6462;DHT22;3264;42.862;25.098;2022-07-23T15:43:07;33.80;41.20
6462;DHT22;3264;42.862;25.098;2022-07-23T15:45:39;33.60;44.20
6462;DHT22;3264;42.862;25.098;2022-07-23T15:48:07;33.60;44.40
6462;DHT22;3264;42.862;25.098;2022-07-23T15:50:35;32.90;44.80
6462;DHT22;3264;42.862;25.098;2022-07-23T15:53:10;32.70;46.40
6462;DHT22;3264;42.862;25.098;2022-07-23T15:55:42;32.60;46.70
6462;DHT22;3264;42.862;25.098;2022-07-23T15:58:13;32.40;46.90
6462;DHT22;3264;42.862;25.098;2022-07-23T16:00:51;32.30;47.60
6462;DHT22;3264;42.862;25.098;2022-07-23T16:03:19;32.20;48.00
6462;DHT22;3264;42.862;25.098;2022-07-23T16:05:47;32.20;48.30
6462;DHT22;3264;42.862;25.098;2022-07-23T16:08:19;32.00;48.30
6462;DHT22;3264;42.862;25.098;2022-07-23T16:10:48;31.70;48.40
6462;DHT22;3264;42.862;25.098;2022-07-23T16:13:18;31.70;49.70
6462;DHT22;3264;42.862;25.098;2022-07-23T16:15:50;31.40;49.00
6462;DHT22;3264;42.862;25.098;2022-07-23T16:18:23;31.10;48.60
6462;DHT22;3264;42.862;25.098;2022-07-23T16:20:52;30.70;49.80
6462;DHT22;3264;42.862;25.098;2022-07-23T16:23:26;30.60;50.90
6462;DHT22;3264;42.862;25.098;2022-07-23T16:25:58;30.60;51.00
6462;DHT22;3264;42.862;25.098;2022-07-23T16:28:30;30.60;50.70
6462;DHT22;3264;42.862;25.098;2022-07-23T16:30:59;30.40;50.80
6462;DHT22;3264;42.862;25.098;2022-07-23T16:33:31;30.20;51.80
6462;DHT22;3264;42.862;25.098;2022-07-23T16:36:00;30.00;51.30
6462;DHT22;3264;42.862;25.098;2022-07-23T16:38:33;29.90;51.50
6462;DHT22;3264;42.862;25.098;2022-07-23T16:41:03;29.70;50.80
6462;DHT22;3264;42.862;25.098;2022-07-23T16:43:37;29.70;50.90
6462;DHT22;3264;42.862;25.098;2022-07-23T16:46:08;29.50;51.80
6462;DHT22;3264;42.862;25.098;2022-07-23T16:48:40;29.40;52.10
6462;DHT22;3264;42.862;25.098;2022-07-23T16:51:09;29.20;52.90
6462;DHT22;3264;42.862;25.098;2022-07-23T16:53:38;29.00;53.40
6462;DHT22;3264;42.862;25.098;2022-07-23T16:56:10;28.90;53.50
6462;DHT22;3264;42.862;25.098;2022-07-23T16:58:45;28.70;53.20
6462;DHT22;3264;42.862;25.098;2022-07-23T17:01:14;28.60;54.20
6462;DHT22;3264;42.862;25.098;2022-07-23T17:03:45;28.40;54.80
6462;DHT22;3264;42.862;25.098;2022-07-23T17:06:16;28.40;54.30
6462;DHT22;3264;42.862;25.098;2022-07-23T17:08:48;28.10;54.40
6462;DHT22;3264;42.862;25.098;2022-07-23T17:11:17;28.00;54.10
6462;DHT22;3264;42.862;25.098;2022-07-23T17:13:53;28.00;54.30
6462;DHT22;3264;42.862;25.098;2022-07-23T17:16:24;28.00;54.60
6462;DHT22;3264;42.862;25.098;2022-07-23T17:18:55;27.80;55.10
6462;DHT22;3264;42.862;25.098;2022-07-23T17:21:24;27.70;55.80
6462;DHT22;3264;42.862;25.098;2022-07-23T17:23:55;27.60;56.50
6462;DHT22;3264;42.862;25.098;2022-07-23T17:26:26;27.50;56.50
6462;DHT22;3264;42.862;25.098;2022-07-23T17:28:59;27.30;56.80
6462;DHT22;3264;42.862;25.098;2022-07-23T17:31:31;27.30;57.30
6462;DHT22;3264;42.862;25.098;2022-07-23T17:34:00;27.00;57.30
6462;DHT22;3264;42.862;25.098;2022-07-23T17:36:32;26.90;58.10
6462;DHT22;3264;42.862;25.098;2022-07-23T17:39:04;26.80;58.50